sensor_id;sensor_type;location;lat;lon;timestamp;P1;durP1;ratioP1;P2;durP2;ratioP2
12076;SDS011;12420;42.676;23.262;2022-07-12T00:00:30;1.40;;;1.40;;
12076;SDS011;12420;42.676;23.262;2022-07-12T00:02:57;2.33;;;1.80;;
12076;SDS011;12420;42.676;23.262;2022-07-12T00:05:24;1.93;;;1.70;;
12076;SDS011;12420;42.676;23.262;2022-07-12T00:07:51;2.23;;;1.73;;
12076;SDS011;12420;42.676;23.262;2022-07-12T00:10:19;1.97;;;1.80;;
12076;SDS011;12420;42.676;23.262;2022-07-12T00:12:46;1.83;;;1.50;;
12076;SDS011;12420;42.676;23.262;2022-07-12T00:15:12;1.47;;;1.47;;
12076;SDS011;12420;42.676;23.262;2022-07-12T00:17:41;1.67;;;1.57;;
12076;SDS011;12420;42.676;23.262;2022-07-12T00:20:08;2.07;;;1.57;;
12076;SDS011;12420;42.676;23.262;2022-07-12T00:22:36;2.40;;;1.63;;
12076;SDS011;12420;42.676;23.262;2022-07-12T00:25:03;4.13;;;1.70;;
12076;SDS011;12420;42.676;23.262;2022-07-12T00:27:32;1.63;;;1.47;;
12076;SDS011;12420;42.676;23.262;2022-07-12T00:29:58;2.47;;;1.57;;
12076;SDS011;12420;42.676;23.262;2022-07-12T00:32:25;4.63;;;1.63;;
12076;SDS011;12420;42.676;23.262;2022-07-12T00:34:52;2.73;;;1.67;;
12076;SDS011;12420;42.676;23.262;2022-07-12T00:37:19;1.60;;;1.50;;
12076;SDS011;12420;42.676;23.262;2022-07-12T00:39:46;1.53;;;1.43;;
12076;SDS011;12420;42.676;23.262;2022-07-12T00:42:13;1.97;;;1.40;;
12076;SDS011;12420;42.676;23.262;2022-07-12T00:44:41;2.93;;;1.60;;
12076;SDS011;12420;42.676;23.262;2022-07-12T00:47:07;2.60;;;1.60;;
12076;SDS011;12420;42.676;23.262;2022-07-12T00:49:43;1.93;;;1.60;;
12076;SDS011;12420;42.676;23.262;2022-07-12T00:52:10;3.57;;;1.70;;
12076;SDS011;12420;42.676;23.262;2022-07-12T00:54:37;1.60;;;1.50;;
12076;SDS011;12420;42.676;23.262;2022-07-12T00:57:04;2.90;;;1.70;;
12076;SDS011;12420;42.676;23.262;2022-07-12T00:59:31;1.80;;;1.50;;
12076;SDS011;12420;42.676;23.262;2022-07-12T01:01:59;1.53;;;1.43;;
12076;SDS011;12420;42.676;23.262;2022-07-12T01:04:26;1.60;;;1.50;;
12076;SDS011;12420;42.676;23.262;2022-07-12T01:06:54;1.80;;;1.70;;
12076;SDS011;12420;42.676;23.262;2022-07-12T01:09:21;2.73;;;1.70;;
12076;SDS011;12420;42.676;23.262;2022-07-12T01:11:47;1.60;;;1.50;;
12076;SDS011;12420;42.676;23.262;2022-07-12T01:14:14;1.87;;;1.60;;
12076;SDS011;12420;42.676;23.262;2022-07-12T01:16:42;1.60;;;1.50;;
12076;SDS011;12420;42.676;23.262;2022-07-12T01:19:11;1.77;;;1.67;;
12076;SDS011;12420;42.676;23.262;2022-07-12T01:21:45;2.67;;;1.60;;
12076;SDS011;12420;42.676;23.262;2022-07-12T01:24:15;1.60;;;1.50;;
12076;SDS011;12420;42.676;23.262;2022-07-12T01:26:44;1.63;;;1.53;;
12076;SDS011;12420;42.676;23.262;2022-07-12T01:29:11;4.43;;;1.77;;
12076;SDS011;12420;42.676;23.262;2022-07-12T01:31:38;5.43;;;1.87;;
12076;SDS011;12420;42.676;23.262;2022-07-12T01:34:05;3.50;;;1.77;;
12076;SDS011;12420;42.676;23.262;2022-07-12T01:36:33;1.73;;;1.63;;
12076;SDS011;12420;42.676;23.262;2022-07-12T01:39:00;3.53;;;1.70;;
12076;SDS011;12420;42.676;23.262;2022-07-12T01:41:28;2.63;;;1.77;;
12076;SDS011;12420;42.676;23.262;2022-07-12T01:43:55;2.20;;;1.77;;
12076;SDS011;12420;42.676;23.262;2022-07-12T01:46:22;2.60;;;1.70;;
12076;SDS011;12420;42.676;23.262;2022-07-12T01:48:49;4.03;;;1.93;;
12076;SDS011;12420;42.676;23.262;2022-07-12T01:51:16;2.43;;;2.00;;
12076;SDS011;12420;42.676;23.262;2022-07-12T01:53:43;3.87;;;2.47;;
12076;SDS011;12420;42.676;23.262;2022-07-12T01:56:10;2.83;;;1.80;;
12076;SDS011;12420;42.676;23.262;2022-07-12T01:58:38;6.10;;;1.80;;
12076;SDS011;12420;42.676;23.262;2022-07-12T02:01:05;1.83;;;1.70;;
12076;SDS011;12420;42.676;23.262;2022-07-12T02:03:33;2.00;;;1.80;;
12076;SDS011;12420;42.676;23.262;2022-07-12T02:06:00;1.90;;;1.80;;
12076;SDS011;12420;42.676;23.262;2022-07-12T02:08:28;3.97;;;1.80;;
12076;SDS011;12420;42.676;23.262;2022-07-12T02:10:54;3.17;;;1.97;;
12076;SDS011;12420;42.676;23.262;2022-07-12T02:13:21;2.67;;;1.97;;
12076;SDS011;12420;42.676;23.262;2022-07-12T02:15:49;2.47;;;1.83;;
12076;SDS011;12420;42.676;23.262;2022-07-12T02:18:18;2.10;;;2.00;;
12076;SDS011;12420;42.676;23.262;2022-07-12T02:20:47;1.80;;;1.70;;
12076;SDS011;12420;42.676;23.262;2022-07-12T02:23:14;4.27;;;2.10;;
12076;SDS011;12420;42.676;23.262;2022-07-12T02:25:41;4.20;;;2.00;;
12076;SDS011;12420;42.676;23.262;2022-07-12T02:28:07;2.43;;;2.03;;
12076;SDS011;12420;42.676;23.262;2022-07-12T02:30:34;2.83;;;2.23;;
12076;SDS011;12420;42.676;23.262;2022-07-12T02:33:02;6.17;;;2.20;;
12076;SDS011;12420;42.676;23.262;2022-07-12T02:35:29;2.70;;;2.20;;
12076;SDS011;12420;42.676;23.262;2022-07-12T02:37:56;3.40;;;2.10;;
12076;SDS011;12420;42.676;23.262;2022-07-12T02:40:23;3.25;;;2.10;;
12076;SDS011;12420;42.676;23.262;2022-07-12T02:43:07;5.17;;;2.40;;
12076;SDS011;12420;42.676;23.262;2022-07-12T02:45:33;2.10;;;2.00;;
12076;SDS011;12420;42.676;23.262;2022-07-12T02:48:00;2.93;;;2.30;;
12076;SDS011;12420;42.676;23.262;2022-07-12T02:50:29;2.33;;;2.00;;
12076;SDS011;12420;42.676;23.262;2022-07-12T02:52:55;2.13;;;2.03;;
12076;SDS011;12420;42.676;23.262;2022-07-12T02:55:22;5.87;;;2.57;;
12076;SDS011;12420;42.676;23.262;2022-07-12T02:57:49;6.57;;;2.40;;
12076;SDS011;12420;42.676;23.262;2022-07-12T03:00:15;5.50;;;2.30;;
12076;SDS011;12420;42.676;23.262;2022-07-12T03:02:43;2.50;;;2.30;;
12076;SDS011;12420;42.676;23.262;2022-07-12T03:05:13;3.07;;;2.20;;
12076;SDS011;12420;42.676;23.262;2022-07-12T03:07:41;3.43;;;2.10;;
12076;SDS011;12420;42.676;23.262;2022-07-12T03:10:08;4.10;;;2.33;;
12076;SDS011;12420;42.676;23.262;2022-07-12T03:12:36;2.47;;;2.10;;
12076;SDS011;12420;42.676;23.262;2022-07-12T03:15:03;2.17;;;1.90;;
12076;SDS011;12420;42.676;23.262;2022-07-12T03:17:30;4.10;;;2.27;;
12076;SDS011;12420;42.676;23.262;2022-07-12T03:19:58;2.33;;;2.00;;
12076;SDS011;12420;42.676;23.262;2022-07-12T03:22:24;2.53;;;2.03;;
12076;SDS011;12420;42.676;23.262;2022-07-12T03:24:53;2.13;;;2.00;;
12076;SDS011;12420;42.676;23.262;2022-07-12T03:27:20;3.87;;;2.37;;
12076;SDS011;12420;42.676;23.262;2022-07-12T03:29:47;2.17;;;2.00;;
12076;SDS011;12420;42.676;23.262;2022-07-12T03:32:14;5.03;;;2.07;;
12076;SDS011;12420;42.676;23.262;2022-07-12T03:34:41;3.73;;;2.20;;
12076;SDS011;12420;42.676;23.262;2022-07-12T03:37:08;4.00;;;3.00;;
12076;SDS011;12420;42.676;23.262;2022-07-12T03:39:34;9.00;;;3.57;;
12076;SDS011;12420;42.676;23.262;2022-07-12T03:42:03;9.40;;;3.43;;
12076;SDS011;12420;42.676;23.262;2022-07-12T03:44:30;4.17;;;3.27;;
12076;SDS011;12420;42.676;23.262;2022-07-12T03:46:58;5.83;;;3.43;;
12076;SDS011;12420;42.676;23.262;2022-07-12T03:49:26;6.33;;;3.10;;
12076;SDS011;12420;42.676;23.262;2022-07-12T03:51:53;7.87;;;3.27;;
12076;SDS011;12420;42.676;23.262;2022-07-12T03:54:20;6.83;;;3.50;;
12076;SDS011;12420;42.676;23.262;2022-07-12T03:56:47;7.90;;;3.38;;
12076;SDS011;12420;42.676;23.262;2022-07-12T03:59:32;5.07;;;3.50;;
12076;SDS011;12420;42.676;23.262;2022-07-12T04:01:59;4.37;;;3.30;;
12076;SDS011;12420;42.676;23.262;2022-07-12T04:04:27;5.93;;;3.60;;
12076;SDS011;12420;42.676;23.262;2022-07-12T04:06:54;4.70;;;3.43;;
12076;SDS011;12420;42.676;23.262;2022-07-12T04:09:21;6.87;;;3.83;;
12076;SDS011;12420;42.676;23.262;2022-07-12T04:11:48;5.07;;;3.73;;
12076;SDS011;12420;42.676;23.262;2022-07-12T04:14:15;5.97;;;3.77;;
12076;SDS011;12420;42.676;23.262;2022-07-12T04:16:43;7.67;;;3.83;;
12076;SDS011;12420;42.676;23.262;2022-07-12T04:19:10;7.80;;;3.77;;
12076;SDS011;12420;42.676;23.262;2022-07-12T04:21:37;6.70;;;3.70;;
12076;SDS011;12420;42.676;23.262;2022-07-12T04:24:05;9.23;;;3.70;;
12076;SDS011;12420;42.676;23.262;2022-07-12T04:26:32;7.37;;;3.87;;
12076;SDS011;12420;42.676;23.262;2022-07-12T04:28:59;5.97;;;3.53;;
12076;SDS011;12420;42.676;23.262;2022-07-12T04:31:26;6.10;;;3.50;;
12076;SDS011;12420;42.676;23.262;2022-07-12T04:33:54;3.90;;;3.03;;
12076;SDS011;12420;42.676;23.262;2022-07-12T04:36:21;11.43;;;3.63;;
12076;SDS011;12420;42.676;23.262;2022-07-12T04:38:47;6.30;;;3.60;;
12076;SDS011;12420;42.676;23.262;2022-07-12T04:41:20;8.23;;;3.33;;
12076;SDS011;12420;42.676;23.262;2022-07-12T04:43:46;9.03;;;2.97;;
12076;SDS011;12420;42.676;23.262;2022-07-12T04:46:15;7.57;;;3.10;;
12076;SDS011;12420;42.676;23.262;2022-07-12T04:48:42;6.50;;;3.30;;
12076;SDS011;12420;42.676;23.262;2022-07-12T04:51:10;7.13;;;3.67;;
12076;SDS011;12420;42.676;23.262;2022-07-12T04:53:37;7.20;;;3.80;;
12076;SDS011;12420;42.676;23.262;2022-07-12T04:56:04;10.33;;;4.53;;
12076;SDS011;12420;42.676;23.262;2022-07-12T04:58:31;7.30;;;4.60;;
12076;SDS011;12420;42.676;23.262;2022-07-12T05:00:58;12.30;;;4.80;;
12076;SDS011;12420;42.676;23.262;2022-07-12T05:03:25;6.80;;;4.53;;
12076;SDS011;12420;42.676;23.262;2022-07-12T05:05:52;11.60;;;4.87;;
12076;SDS011;12420;42.676;23.262;2022-07-12T05:08:24;11.47;;;4.63;;
12076;SDS011;12420;42.676;23.262;2022-07-12T05:10:51;11.47;;;4.80;;
12076;SDS011;12420;42.676;23.262;2022-07-12T05:13:18;6.33;;;4.30;;
12076;SDS011;12420;42.676;23.262;2022-07-12T05:15:45;9.93;;;3.97;;
12076;SDS011;12420;42.676;23.262;2022-07-12T05:18:11;6.87;;;4.00;;
12076;SDS011;12420;42.676;23.262;2022-07-12T05:20:39;9.30;;;4.00;;
12076;SDS011;12420;42.676;23.262;2022-07-12T05:23:06;7.90;;;4.80;;
12076;SDS011;12420;42.676;23.262;2022-07-12T05:25:34;9.93;;;4.80;;
12076;SDS011;12420;42.676;23.262;2022-07-12T05:28:01;10.33;;;4.07;;
12076;SDS011;12420;42.676;23.262;2022-07-12T05:30:29;10.93;;;4.30;;
12076;SDS011;12420;42.676;23.262;2022-07-12T05:32:56;10.27;;;4.57;;
12076;SDS011;12420;42.676;23.262;2022-07-12T05:35:26;8.07;;;4.37;;
12076;SDS011;12420;42.676;23.262;2022-07-12T05:37:53;8.27;;;4.07;;
12076;SDS011;12420;42.676;23.262;2022-07-12T05:40:19;9.83;;;3.57;;
12076;SDS011;12420;42.676;23.262;2022-07-12T05:42:48;4.20;;;3.10;;
12076;SDS011;12420;42.676;23.262;2022-07-12T05:45:16;7.17;;;3.50;;
12076;SDS011;12420;42.676;23.262;2022-07-12T05:47:43;4.53;;;1.97;;
12076;SDS011;12420;42.676;23.262;2022-07-12T05:50:10;4.67;;;1.90;;
12076;SDS011;12420;42.676;23.262;2022-07-12T05:52:37;3.20;;;1.77;;
12076;SDS011;12420;42.676;23.262;2022-07-12T05:55:21;2.20;;;1.70;;
12076;SDS011;12420;42.676;23.262;2022-07-12T05:57:51;2.47;;;1.63;;
12076;SDS011;12420;42.676;23.262;2022-07-12T06:00:17;2.80;;;1.60;;
12076;SDS011;12420;42.676;23.262;2022-07-12T06:02:44;2.23;;;1.70;;
12076;SDS011;12420;42.676;23.262;2022-07-12T06:05:11;2.30;;;1.80;;
12076;SDS011;12420;42.676;23.262;2022-07-12T06:07:38;1.77;;;1.60;;
12076;SDS011;12420;42.676;23.262;2022-07-12T06:10:05;2.50;;;1.63;;
12076;SDS011;12420;42.676;23.262;2022-07-12T06:12:35;4.23;;;1.73;;
12076;SDS011;12420;42.676;23.262;2022-07-12T06:15:04;2.80;;;1.87;;
12076;SDS011;12420;42.676;23.262;2022-07-12T06:17:32;3.90;;;1.73;;
12076;SDS011;12420;42.676;23.262;2022-07-12T06:19:59;3.40;;;1.53;;
12076;SDS011;12420;42.676;23.262;2022-07-12T06:22:26;2.27;;;1.90;;
12076;SDS011;12420;42.676;23.262;2022-07-12T06:24:53;1.80;;;1.70;;
12076;SDS011;12420;42.676;23.262;2022-07-12T06:27:19;8.70;;;1.70;;
12076;SDS011;12420;42.676;23.262;2022-07-12T06:29:46;6.10;;;1.80;;
12076;SDS011;12420;42.676;23.262;2022-07-12T06:32:15;4.30;;;2.00;;
12076;SDS011;12420;42.676;23.262;2022-07-12T06:34:43;2.53;;;1.83;;
12076;SDS011;12420;42.676;23.262;2022-07-12T06:37:12;4.77;;;2.20;;
12076;SDS011;12420;42.676;23.262;2022-07-12T06:39:40;5.10;;;2.10;;
12076;SDS011;12420;42.676;23.262;2022-07-12T06:42:07;5.83;;;1.90;;
12076;SDS011;12420;42.676;23.262;2022-07-12T06:44:34;3.67;;;1.90;;
12076;SDS011;12420;42.676;23.262;2022-07-12T06:47:00;5.40;;;1.90;;
12076;SDS011;12420;42.676;23.262;2022-07-12T06:49:29;3.67;;;2.10;;
12076;SDS011;12420;42.676;23.262;2022-07-12T06:51:56;6.93;;;2.00;;
12076;SDS011;12420;42.676;23.262;2022-07-12T06:54:23;2.27;;;2.00;;
12076;SDS011;12420;42.676;23.262;2022-07-12T06:56:50;3.67;;;1.97;;
12076;SDS011;12420;42.676;23.262;2022-07-12T06:59:17;3.33;;;2.00;;
12076;SDS011;12420;42.676;23.262;2022-07-12T07:01:44;4.20;;;1.90;;
12076;SDS011;12420;42.676;23.262;2022-07-12T07:04:11;2.23;;;1.67;;
12076;SDS011;12420;42.676;23.262;2022-07-12T07:06:39;4.50;;;2.00;;
12076;SDS011;12420;42.676;23.262;2022-07-12T07:09:06;5.60;;;2.20;;
12076;SDS011;12420;42.676;23.262;2022-07-12T07:11:34;4.70;;;2.17;;
12076;SDS011;12420;42.676;23.262;2022-07-12T07:14:02;5.23;;;1.90;;
12076;SDS011;12420;42.676;23.262;2022-07-12T07:16:29;1.73;;;1.57;;
12076;SDS011;12420;42.676;23.262;2022-07-12T07:18:56;3.07;;;1.43;;
12076;SDS011;12420;42.676;23.262;2022-07-12T07:21:23;4.10;;;1.77;;
12076;SDS011;12420;42.676;23.262;2022-07-12T07:23:52;2.50;;;1.93;;
12076;SDS011;12420;42.676;23.262;2022-07-12T07:26:20;2.30;;;1.53;;
12076;SDS011;12420;42.676;23.262;2022-07-12T07:28:47;2.73;;;1.50;;
12076;SDS011;12420;42.676;23.262;2022-07-12T07:31:33;2.67;;;1.53;;
12076;SDS011;12420;42.676;23.262;2022-07-12T07:34:03;1.77;;;1.20;;
12076;SDS011;12420;42.676;23.262;2022-07-12T07:36:30;1.20;;;1.10;;
12076;SDS011;12420;42.676;23.262;2022-07-12T07:38:59;1.60;;;1.03;;
12076;SDS011;12420;42.676;23.262;2022-07-12T07:41:26;1.73;;;1.37;;
12076;SDS011;12420;42.676;23.262;2022-07-12T07:43:53;1.63;;;1.50;;
12076;SDS011;12420;42.676;23.262;2022-07-12T07:46:20;3.70;;;1.10;;
12076;SDS011;12420;42.676;23.262;2022-07-12T07:48:46;1.83;;;1.20;;
12076;SDS011;12420;42.676;23.262;2022-07-12T07:51:13;2.57;;;1.47;;
12076;SDS011;12420;42.676;23.262;2022-07-12T07:53:40;3.67;;;1.40;;
12076;SDS011;12420;42.676;23.262;2022-07-12T07:56:08;2.50;;;1.40;;
12076;SDS011;12420;42.676;23.262;2022-07-12T07:58:35;1.50;;;1.20;;
12076;SDS011;12420;42.676;23.262;2022-07-12T08:01:01;3.30;;;1.20;;
12076;SDS011;12420;42.676;23.262;2022-07-12T08:03:28;3.43;;;1.40;;
12076;SDS011;12420;42.676;23.262;2022-07-12T08:05:55;4.13;;;1.63;;
12076;SDS011;12420;42.676;23.262;2022-07-12T08:08:23;1.20;;;1.07;;
12076;SDS011;12420;42.676;23.262;2022-07-12T08:10:53;3.27;;;1.20;;
12076;SDS011;12420;42.676;23.262;2022-07-12T08:13:22;2.83;;;1.50;;
12076;SDS011;12420;42.676;23.262;2022-07-12T08:15:49;3.57;;;1.47;;
12076;SDS011;12420;42.676;23.262;2022-07-12T08:18:16;3.80;;;1.30;;
12076;SDS011;12420;42.676;23.262;2022-07-12T08:20:43;1.77;;;1.13;;
12076;SDS011;12420;42.676;23.262;2022-07-12T08:23:10;2.77;;;1.30;;
12076;SDS011;12420;42.676;23.262;2022-07-12T08:25:37;4.13;;;1.53;;
12076;SDS011;12420;42.676;23.262;2022-07-12T08:28:04;1.57;;;1.10;;
12076;SDS011;12420;42.676;23.262;2022-07-12T08:30:32;2.13;;;1.20;;
12076;SDS011;12420;42.676;23.262;2022-07-12T08:32:59;1.67;;;1.23;;
12076;SDS011;12420;42.676;23.262;2022-07-12T08:35:26;2.67;;;1.30;;
12076;SDS011;12420;42.676;23.262;2022-07-12T08:37:53;4.93;;;1.40;;
12076;SDS011;12420;42.676;23.262;2022-07-12T08:40:20;1.50;;;1.23;;
12076;SDS011;12420;42.676;23.262;2022-07-12T08:42:46;3.97;;;1.20;;
12076;SDS011;12420;42.676;23.262;2022-07-12T08:45:13;1.40;;;1.10;;
12076;SDS011;12420;42.676;23.262;2022-07-12T08:47:41;3.03;;;1.10;;
12076;SDS011;12420;42.676;23.262;2022-07-12T08:50:09;2.83;;;1.10;;
12076;SDS011;12420;42.676;23.262;2022-07-12T08:52:43;1.33;;;1.13;;
12076;SDS011;12420;42.676;23.262;2022-07-12T08:55:17;5.30;;;1.33;;
12076;SDS011;12420;42.676;23.262;2022-07-12T08:57:49;4.30;;;1.17;;
12076;SDS011;12420;42.676;23.262;2022-07-12T09:00:17;1.30;;;1.20;;
12076;SDS011;12420;42.676;23.262;2022-07-12T09:02:58;3.10;;;1.33;;
12076;SDS011;12420;42.676;23.262;2022-07-12T09:05:26;6.87;;;1.27;;
12076;SDS011;12420;42.676;23.262;2022-07-12T09:08:01;5.07;;;1.17;;
12076;SDS011;12420;42.676;23.262;2022-07-12T09:10:29;2.13;;;1.00;;
12076;SDS011;12420;42.676;23.262;2022-07-12T09:12:56;1.10;;;0.93;;
12076;SDS011;12420;42.676;23.262;2022-07-12T09:15:26;3.50;;;1.10;;
12076;SDS011;12420;42.676;23.262;2022-07-12T09:17:58;2.40;;;1.10;;
12076;SDS011;12420;42.676;23.262;2022-07-12T09:20:27;1.90;;;1.10;;
12076;SDS011;12420;42.676;23.262;2022-07-12T09:22:55;0.90;;;0.90;;
12076;SDS011;12420;42.676;23.262;2022-07-12T09:25:23;2.53;;;1.13;;
12076;SDS011;12420;42.676;23.262;2022-07-12T09:27:51;5.43;;;1.00;;
12076;SDS011;12420;42.676;23.262;2022-07-12T09:30:18;1.73;;;1.00;;
12076;SDS011;12420;42.676;23.262;2022-07-12T09:32:50;3.40;;;1.30;;
12076;SDS011;12420;42.676;23.262;2022-07-12T09:35:36;1.17;;;1.10;;
12076;SDS011;12420;42.676;23.262;2022-07-12T09:38:20;2.60;;;0.90;;
12076;SDS011;12420;42.676;23.262;2022-07-12T09:40:47;1.90;;;1.00;;
12076;SDS011;12420;42.676;23.262;2022-07-12T09:43:14;1.60;;;1.00;;
12076;SDS011;12420;42.676;23.262;2022-07-12T09:45:46;2.40;;;1.10;;
12076;SDS011;12420;42.676;23.262;2022-07-12T09:48:13;2.83;;;1.23;;
12076;SDS011;12420;42.676;23.262;2022-07-12T09:50:43;1.43;;;0.93;;
12076;SDS011;12420;42.676;23.262;2022-07-12T09:53:14;4.37;;;1.10;;
12076;SDS011;12420;42.676;23.262;2022-07-12T09:55:50;1.43;;;1.10;;
12076;SDS011;12420;42.676;23.262;2022-07-12T09:58:20;2.97;;;1.30;;
12076;SDS011;12420;42.676;23.262;2022-07-12T10:00:50;4.13;;;1.00;;
12076;SDS011;12420;42.676;23.262;2022-07-12T10:03:19;4.37;;;1.10;;
12076;SDS011;12420;42.676;23.262;2022-07-12T10:05:48;2.97;;;0.90;;
12076;SDS011;12420;42.676;23.262;2022-07-12T10:08:17;1.13;;;0.80;;
12076;SDS011;12420;42.676;23.262;2022-07-12T10:10:45;2.40;;;0.80;;
12076;SDS011;12420;42.676;23.262;2022-07-12T10:13:12;1.97;;;0.80;;
12076;SDS011;12420;42.676;23.262;2022-07-12T10:15:40;1.70;;;1.13;;
12076;SDS011;12420;42.676;23.262;2022-07-12T10:18:14;1.13;;;0.90;;
12076;SDS011;12420;42.676;23.262;2022-07-12T10:20:42;0.80;;;0.80;;
12076;SDS011;12420;42.676;23.262;2022-07-12T10:25:59;1.20;;;1.10;;
12076;SDS011;12420;42.676;23.262;2022-07-12T10:31:30;1.05;;;0.90;;
12076;SDS011;12420;42.676;23.262;2022-07-12T10:34:09;6.20;;;1.77;;
12076;SDS011;12420;42.676;23.262;2022-07-12T10:39:36;2.23;;;0.90;;
12076;SDS011;12420;42.676;23.262;2022-07-12T10:42:15;2.73;;;1.37;;
12076;SDS011;12420;42.676;23.262;2022-07-12T10:44:44;5.40;;;1.27;;
12076;SDS011;12420;42.676;23.262;2022-07-12T10:47:13;0.90;;;0.90;;
12076;SDS011;12420;42.676;23.262;2022-07-12T10:49:44;2.30;;;1.33;;
12076;SDS011;12420;42.676;23.262;2022-07-12T10:52:23;1.00;;;1.00;;
12076;SDS011;12420;42.676;23.262;2022-07-12T10:57:45;2.13;;;1.20;;
12076;SDS011;12420;42.676;23.262;2022-07-12T11:00:15;1.60;;;1.00;;
12076;SDS011;12420;42.676;23.262;2022-07-12T11:02:44;6.00;;;1.30;;
12076;SDS011;12420;42.676;23.262;2022-07-12T11:05:11;2.83;;;1.07;;
12076;SDS011;12420;42.676;23.262;2022-07-12T11:07:38;1.33;;;1.23;;
12076;SDS011;12420;42.676;23.262;2022-07-12T11:10:05;2.87;;;1.10;;
12076;SDS011;12420;42.676;23.262;2022-07-12T11:12:34;2.13;;;1.23;;
12076;SDS011;12420;42.676;23.262;2022-07-12T11:15:01;1.33;;;1.27;;
12076;SDS011;12420;42.676;23.262;2022-07-12T11:17:29;2.13;;;1.20;;
12076;SDS011;12420;42.676;23.262;2022-07-12T11:20:04;1.30;;;1.07;;
12076;SDS011;12420;42.676;23.262;2022-07-12T11:22:32;2.37;;;1.10;;
12076;SDS011;12420;42.676;23.262;2022-07-12T11:24:59;3.63;;;1.10;;
12076;SDS011;12420;42.676;23.262;2022-07-12T11:27:26;1.70;;;1.37;;
12076;SDS011;12420;42.676;23.262;2022-07-12T11:29:58;2.23;;;1.10;;
12076;SDS011;12420;42.676;23.262;2022-07-12T11:32:35;1.37;;;1.27;;
12076;SDS011;12420;42.676;23.262;2022-07-12T11:35:03;1.47;;;1.10;;
12076;SDS011;12420;42.676;23.262;2022-07-12T11:37:31;1.30;;;1.20;;
12076;SDS011;12420;42.676;23.262;2022-07-12T11:39:58;2.17;;;1.20;;
12076;SDS011;12420;42.676;23.262;2022-07-12T11:42:25;1.47;;;1.00;;
12076;SDS011;12420;42.676;23.262;2022-07-12T11:44:51;2.67;;;1.17;;
12076;SDS011;12420;42.676;23.262;2022-07-12T11:47:20;2.87;;;1.20;;
12076;SDS011;12420;42.676;23.262;2022-07-12T11:49:50;1.87;;;1.17;;
12076;SDS011;12420;42.676;23.262;2022-07-12T11:52:17;1.93;;;1.40;;
12076;SDS011;12420;42.676;23.262;2022-07-12T11:54:46;1.57;;;1.30;;
12076;SDS011;12420;42.676;23.262;2022-07-12T11:57:13;1.27;;;1.17;;
12076;SDS011;12420;42.676;23.262;2022-07-12T11:59:41;2.03;;;1.30;;
12076;SDS011;12420;42.676;23.262;2022-07-12T12:02:09;1.27;;;1.27;;
12076;SDS011;12420;42.676;23.262;2022-07-12T12:04:45;11.23;;;1.37;;
12076;SDS011;12420;42.676;23.262;2022-07-12T12:07:13;2.03;;;1.57;;
12076;SDS011;12420;42.676;23.262;2022-07-12T12:09:57;2.23;;;1.50;;
12076;SDS011;12420;42.676;23.262;2022-07-12T12:12:24;2.33;;;1.30;;
12076;SDS011;12420;42.676;23.262;2022-07-12T12:14:51;1.57;;;1.37;;
12076;SDS011;12420;42.676;23.262;2022-07-12T12:17:18;1.20;;;1.10;;
12076;SDS011;12420;42.676;23.262;2022-07-12T12:19:46;1.10;;;1.10;;
12076;SDS011;12420;42.676;23.262;2022-07-12T12:22:26;4.00;;;1.10;;
12076;SDS011;12420;42.676;23.262;2022-07-12T12:24:57;1.37;;;1.10;;
12076;SDS011;12420;42.676;23.262;2022-07-12T12:27:24;1.30;;;1.20;;
12076;SDS011;12420;42.676;23.262;2022-07-12T12:29:51;1.77;;;1.10;;
12076;SDS011;12420;42.676;23.262;2022-07-12T12:32:18;1.23;;;1.10;;
12076;SDS011;12420;42.676;23.262;2022-07-12T12:37:33;1.73;;;1.10;;
12076;SDS011;12420;42.676;23.262;2022-07-12T12:40:00;3.13;;;1.23;;
12076;SDS011;12420;42.676;23.262;2022-07-12T12:42:27;1.37;;;1.10;;
12076;SDS011;12420;42.676;23.262;2022-07-12T12:44:54;1.30;;;1.20;;
12076;SDS011;12420;42.676;23.262;2022-07-12T12:47:21;1.85;;;1.25;;
12076;SDS011;12420;42.676;23.262;2022-07-12T12:49:58;1.47;;;1.07;;
12076;SDS011;12420;42.676;23.262;2022-07-12T12:52:28;2.47;;;1.13;;
12076;SDS011;12420;42.676;23.262;2022-07-12T12:54:56;1.13;;;1.07;;
12076;SDS011;12420;42.676;23.262;2022-07-12T12:57:23;1.53;;;1.20;;
12076;SDS011;12420;42.676;23.262;2022-07-12T12:59:51;2.30;;;1.17;;
12076;SDS011;12420;42.676;23.262;2022-07-12T13:02:18;1.02;;;1.02;;
12076;SDS011;12420;42.676;23.262;2022-07-12T13:04:47;0.90;;;0.90;;
12076;SDS011;12420;42.676;23.262;2022-07-12T13:07:14;1.52;;;1.17;;
12076;SDS011;12420;42.676;23.262;2022-07-12T13:09:42;1.17;;;1.05;;
12076;SDS011;12420;42.676;23.262;2022-07-12T13:12:09;4.25;;;1.20;;
12076;SDS011;12420;42.676;23.262;2022-07-12T13:14:41;1.15;;;1.00;;
12076;SDS011;12420;42.676;23.262;2022-07-12T13:17:08;0.98;;;0.98;;
12076;SDS011;12420;42.676;23.262;2022-07-12T13:19:35;5.50;;;1.30;;
12076;SDS011;12420;42.676;23.262;2022-07-12T13:22:02;2.33;;;1.33;;
12076;SDS011;12420;42.676;23.262;2022-07-12T13:24:29;1.20;;;1.00;;
12076;SDS011;12420;42.676;23.262;2022-07-12T13:26:57;3.35;;;1.10;;
12076;SDS011;12420;42.676;23.262;2022-07-12T13:29:26;2.63;;;1.50;;
12076;SDS011;12420;42.676;23.262;2022-07-12T13:31:53;3.22;;;1.45;;
12076;SDS011;12420;42.676;23.262;2022-07-12T13:34:20;3.55;;;1.40;;
12076;SDS011;12420;42.676;23.262;2022-07-12T13:36:47;3.38;;;1.20;;
12076;SDS011;12420;42.676;23.262;2022-07-12T13:39:14;3.15;;;1.10;;
12076;SDS011;12420;42.676;23.262;2022-07-12T13:42:02;0.98;;;0.98;;
12076;SDS011;12420;42.676;23.262;2022-07-12T13:44:29;3.20;;;1.30;;
12076;SDS011;12420;42.676;23.262;2022-07-12T13:46:55;2.33;;;1.48;;
12076;SDS011;12420;42.676;23.262;2022-07-12T13:49:22;1.52;;;1.42;;
12076;SDS011;12420;42.676;23.262;2022-07-12T13:51:49;1.27;;;1.17;;
12076;SDS011;12420;42.676;23.262;2022-07-12T13:54:16;2.05;;;1.25;;
12076;SDS011;12420;42.676;23.262;2022-07-12T13:56:42;1.33;;;1.23;;
12076;SDS011;12420;42.676;23.262;2022-07-12T13:59:13;2.47;;;1.40;;
12076;SDS011;12420;42.676;23.262;2022-07-12T14:01:40;2.25;;;1.60;;
12076;SDS011;12420;42.676;23.262;2022-07-12T14:04:07;1.50;;;1.02;;
12076;SDS011;12420;42.676;23.262;2022-07-12T14:06:34;3.95;;;1.33;;
12076;SDS011;12420;42.676;23.262;2022-07-12T14:09:01;1.20;;;1.10;;
12076;SDS011;12420;42.676;23.262;2022-07-12T14:11:28;1.30;;;1.20;;
12076;SDS011;12420;42.676;23.262;2022-07-12T14:13:54;1.15;;;1.13;;
12076;SDS011;12420;42.676;23.262;2022-07-12T14:16:23;1.10;;;1.00;;
12076;SDS011;12420;42.676;23.262;2022-07-12T14:18:49;3.45;;;1.23;;
12076;SDS011;12420;42.676;23.262;2022-07-12T14:21:16;1.73;;;1.52;;
12076;SDS011;12420;42.676;23.262;2022-07-12T14:23:43;1.75;;;1.00;;
12076;SDS011;12420;42.676;23.262;2022-07-12T14:26:10;1.95;;;1.20;;
12076;SDS011;12420;42.676;23.262;2022-07-12T14:28:38;2.40;;;1.30;;
12076;SDS011;12420;42.676;23.262;2022-07-12T14:31:05;1.95;;;1.10;;
12076;SDS011;12420;42.676;23.262;2022-07-12T14:33:33;3.30;;;1.13;;
12076;SDS011;12420;42.676;23.262;2022-07-12T14:36:00;2.45;;;0.90;;
12076;SDS011;12420;42.676;23.262;2022-07-12T14:38:27;1.58;;;1.20;;
12076;SDS011;12420;42.676;23.262;2022-07-12T14:40:56;1.25;;;1.20;;
12076;SDS011;12420;42.676;23.262;2022-07-12T14:43:24;1.52;;;1.10;;
12076;SDS011;12420;42.676;23.262;2022-07-12T14:45:51;1.60;;;1.30;;
12076;SDS011;12420;42.676;23.262;2022-07-12T14:48:17;1.63;;;1.40;;
12076;SDS011;12420;42.676;23.262;2022-07-12T14:50:46;1.83;;;1.25;;
12076;SDS011;12420;42.676;23.262;2022-07-12T14:53:13;1.65;;;1.00;;